sensor_id;sensor_type;location;lat;lon;timestamp;P1;durP1;ratioP1;P2;durP2;ratioP2
17949;SDS011;9100;48.700;9.316;2023-05-07T00:00:39;4;;;3.7;;
17949;SDS011;9100;48.700;9.316;2023-05-07T00:01:39;4;;;3.7;;
17949;SDS011;9100;48.700;9.316;2023-05-07T00:02:39;4;;;3.7;;
17949;SDS011;9100;48.700;9.316;2023-05-07T00:03:39;4;;;3.7;;
17949;SDS011;9100;48.700;9.316;2023-05-07T00:04:39;4;;;3.7;;
17949;SDS011;9100;48.700;9.316;2023-05-07T00:04:47;4.1;;;3.7;;
17949;SDS011;9100;48.700;9.316;2023-05-07T00:05:39;4.1;;;3.7;;
17949;SDS011;9100;48.700;9.316;2023-05-07T00:06:39;4.1;;;3.7;;
17949;SDS011;9100;48.700;9.316;2023-05-07T00:07:39;4.1;;;3.7;;
17949;SDS011;9100;48.700;9.316;2023-05-07T00:08:39;4.1;;;3.7;;
17949;SDS011;9100;48.700;9.316;2023-05-07T00:09:39;4.1;;;3.7;;
17949;SDS011;9100;48.700;9.316;2023-05-07T00:09:47;4.5;;;4.1;;
17949;SDS011;9100;48.700;9.316;2023-05-07T00:10:39;4.5;;;4.1;;
17949;SDS011;9100;48.700;9.316;2023-05-07T00:11:39;4.5;;;4.1;;
17949;SDS011;9100;48.700;9.316;2023-05-07T00:12:39;4.5;;;4.1;;
17949;SDS011;9100;48.700;9.316;2023-05-07T00:13:39;4.5;;;4.1;;
17949;SDS011;9100;48.700;9.316;2023-05-07T00:14:39;4.5;;;4.1;;
17949;SDS011;9100;48.700;9.316;2023-05-07T00:14:47;4.2;;;3.9;;
17949;SDS011;9100;48.700;9.316;2023-05-07T00:15:39;4.2;;;3.9;;
17949;SDS011;9100;48.700;9.316;2023-05-07T00:16:39;4.2;;;3.9;;
17949;SDS011;9100;48.700;9.316;2023-05-07T00:17:39;4.2;;;3.9;;
17949;SDS011;9100;48.700;9.316;2023-05-07T00:18:39;4.2;;;3.9;;
17949;SDS011;9100;48.700;9.316;2023-05-07T00:19:39;4.2;;;3.9;;
17949;SDS011;9100;48.700;9.316;2023-05-07T00:19:47;5.7;;;4;;
17949;SDS011;9100;48.700;9.316;2023-05-07T00:20:39;5.7;;;4;;
17949;SDS011;9100;48.700;9.316;2023-05-07T00:21:39;5.7;;;4;;
17949;SDS011;9100;48.700;9.316;2023-05-07T00:22:39;5.7;;;4;;
17949;SDS011;9100;48.700;9.316;2023-05-07T00:23:39;5.7;;;4;;
17949;SDS011;9100;48.700;9.316;2023-05-07T00:24:39;5.7;;;4;;
17949;SDS011;9100;48.700;9.316;2023-05-07T00:24:48;4.4;;;3.2;;
17949;SDS011;9100;48.700;9.316;2023-05-07T00:25:39;4.4;;;3.2;;
17949;SDS011;9100;48.700;9.316;2023-05-07T00:26:39;4.4;;;3.2;;
17949;SDS011;9100;48.700;9.316;2023-05-07T00:27:39;4.4;;;3.2;;
17949;SDS011;9100;48.700;9.316;2023-05-07T00:28:39;4.4;;;3.2;;
17949;SDS011;9100;48.700;9.316;2023-05-07T00:29:39;4.4;;;3.2;;
17949;SDS011;9100;48.700;9.316;2023-05-07T00:29:48;4.5;;;4.1;;
17949;SDS011;9100;48.700;9.316;2023-05-07T00:30:39;4.5;;;4.1;;
17949;SDS011;9100;48.700;9.316;2023-05-07T00:31:39;4.5;;;4.1;;
17949;SDS011;9100;48.700;9.316;2023-05-07T00:32:39;4.5;;;4.1;;
17949;SDS011;9100;48.700;9.316;2023-05-07T00:33:39;4.5;;;4.1;;
17949;SDS011;9100;48.700;9.316;2023-05-07T00:34:39;4.5;;;4.1;;
17949;SDS011;9100;48.700;9.316;2023-05-07T00:34:47;3.5;;;3.2;;
17949;SDS011;9100;48.700;9.316;2023-05-07T00:35:39;3.5;;;3.2;;
17949;SDS011;9100;48.700;9.316;2023-05-07T00:36:39;3.5;;;3.2;;
17949;SDS011;9100;48.700;9.316;2023-05-07T00:37:39;3.5;;;3.2;;
17949;SDS011;9100;48.700;9.316;2023-05-07T00:38:39;3.5;;;3.2;;
17949;SDS011;9100;48.700;9.316;2023-05-07T00:39:39;3.5;;;3.2;;
17949;SDS011;9100;48.700;9.316;2023-05-07T00:39:47;5.9;;;4.2;;
17949;SDS011;9100;48.700;9.316;2023-05-07T00:40:39;5.9;;;4.2;;
17949;SDS011;9100;48.700;9.316;2023-05-07T00:41:39;5.9;;;4.2;;
17949;SDS011;9100;48.700;9.316;2023-05-07T00:42:39;5.9;;;4.2;;
17949;SDS011;9100;48.700;9.316;2023-05-07T00:43:39;5.9;;;4.2;;
17949;SDS011;9100;48.700;9.316;2023-05-07T00:44:39;5.9;;;4.2;;
17949;SDS011;9100;48.700;9.316;2023-05-07T00:44:48;5.1;;;4;;
17949;SDS011;9100;48.700;9.316;2023-05-07T00:45:39;5.1;;;4;;
17949;SDS011;9100;48.700;9.316;2023-05-07T00:46:39;5.1;;;4;;
17949;SDS011;9100;48.700;9.316;2023-05-07T00:47:39;5.1;;;4;;
17949;SDS011;9100;48.700;9.316;2023-05-07T00:48:39;5.1;;;4;;
17949;SDS011;9100;48.700;9.316;2023-05-07T00:49:39;5.1;;;4;;
17949;SDS011;9100;48.700;9.316;2023-05-07T00:49:48;5.2;;;3.8;;
17949;SDS011;9100;48.700;9.316;2023-05-07T00:50:39;5.2;;;3.8;;
17949;SDS011;9100;48.700;9.316;2023-05-07T00:51:39;5.2;;;3.8;;
17949;SDS011;9100;48.700;9.316;2023-05-07T00:52:39;5.2;;;3.8;;
17949;SDS011;9100;48.700;9.316;2023-05-07T00:53:39;5.2;;;3.8;;
17949;SDS011;9100;48.700;9.316;2023-05-07T00:54:39;5.2;;;3.8;;
17949;SDS011;9100;48.700;9.316;2023-05-07T00:54:47;5.3;;;4;;
17949;SDS011;9100;48.700;9.316;2023-05-07T00:55:39;5.3;;;4;;
17949;SDS011;9100;48.700;9.316;2023-05-07T00:56:39;5.3;;;4;;
17949;SDS011;9100;48.700;9.316;2023-05-07T00:57:40;5.3;;;4;;
17949;SDS011;9100;48.700;9.316;2023-05-07T00:58:39;5.3;;;4;;
17949;SDS011;9100;48.700;9.316;2023-05-07T00:59:39;5.3;;;4;;
17949;SDS011;9100;48.700;9.316;2023-05-07T00:59:48;4.1;;;3.3;;
17949;SDS011;9100;48.700;9.316;2023-05-07T01:00:39;4.1;;;3.3;;
17949;SDS011;9100;48.700;9.316;2023-05-07T01:01:39;4.1;;;3.3;;
17949;SDS011;9100;48.700;9.316;2023-05-07T01:02:39;4.1;;;3.3;;
17949;SDS011;9100;48.700;9.316;2023-05-07T01:03:39;4.1;;;3.3;;
17949;SDS011;9100;48.700;9.316;2023-05-07T01:04:39;4.1;;;3.3;;
17949;SDS011;9100;48.700;9.316;2023-05-07T01:04:47;4.3;;;3.9;;
17949;SDS011;9100;48.700;9.316;2023-05-07T01:05:39;4.3;;;3.9;;
17949;SDS011;9100;48.700;9.316;2023-05-07T01:06:39;4.3;;;3.9;;
17949;SDS011;9100;48.700;9.316;2023-05-07T01:07:40;4.3;;;3.9;;
17949;SDS011;9100;48.700;9.316;2023-05-07T01:08:39;4.3;;;3.9;;
17949;SDS011;9100;48.700;9.316;2023-05-07T01:09:39;4.3;;;3.9;;
17949;SDS011;9100;48.700;9.316;2023-05-07T01:09:47;6.4;;;4;;
17949;SDS011;9100;48.700;9.316;2023-05-07T01:10:39;6.4;;;4;;
17949;SDS011;9100;48.700;9.316;2023-05-07T01:11:39;6.4;;;4;;
17949;SDS011;9100;48.700;9.316;2023-05-07T01:12:39;6.4;;;4;;
17949;SDS011;9100;48.700;9.316;2023-05-07T01:13:39;6.4;;;4;;
17949;SDS011;9100;48.700;9.316;2023-05-07T01:14:39;6.4;;;4;;
17949;SDS011;9100;48.700;9.316;2023-05-07T01:14:48;4.3;;;4;;
17949;SDS011;9100;48.700;9.316;2023-05-07T01:15:39;4.3;;;4;;
17949;SDS011;9100;48.700;9.316;2023-05-07T01:16:39;4.3;;;4;;
17949;SDS011;9100;48.700;9.316;2023-05-07T01:17:39;4.3;;;4;;
17949;SDS011;9100;48.700;9.316;2023-05-07T01:18:39;4.3;;;4;;
17949;SDS011;9100;48.700;9.316;2023-05-07T01:19:39;4.3;;;4;;
17949;SDS011;9100;48.700;9.316;2023-05-07T01:19:48;5.1;;;4.1;;
17949;SDS011;9100;48.700;9.316;2023-05-07T01:20:39;5.1;;;4.1;;
17949;SDS011;9100;48.700;9.316;2023-05-07T01:21:39;5.1;;;4.1;;
17949;SDS011;9100;48.700;9.316;2023-05-07T01:22:39;5.1;;;4.1;;
17949;SDS011;9100;48.700;9.316;2023-05-07T01:23:39;5.1;;;4.1;;
17949;SDS011;9100;48.700;9.316;2023-05-07T01:24:39;5.1;;;4.1;;
17949;SDS011;9100;48.700;9.316;2023-05-07T01:24:48;4.4;;;4;;
17949;SDS011;9100;48.700;9.316;2023-05-07T01:25:39;4.4;;;4;;
17949;SDS011;9100;48.700;9.316;2023-05-07T01:26:39;4.4;;;4;;
17949;SDS011;9100;48.700;9.316;2023-05-07T01:27:39;4.4;;;4;;
17949;SDS011;9100;48.700;9.316;2023-05-07T01:28:39;4.4;;;4;;
17949;SDS011;9100;48.700;9.316;2023-05-07T01:29:39;4.4;;;4;;
17949;SDS011;9100;48.700;9.316;2023-05-07T01:29:48;5.3;;;4;;
17949;SDS011;9100;48.700;9.316;2023-05-07T01:30:39;5.3;;;4;;
17949;SDS011;9100;48.700;9.316;2023-05-07T01:31:39;5.3;;;4;;
17949;SDS011;9100;48.700;9.316;2023-05-07T01:32:40;5.3;;;4;;
17949;SDS011;9100;48.700;9.316;2023-05-07T01:33:40;5.3;;;4;;
17949;SDS011;9100;48.700;9.316;2023-05-07T01:34:39;5.3;;;4;;
17949;SDS011;9100;48.700;9.316;2023-05-07T01:34:48;4.2;;;3.8;;
17949;SDS011;9100;48.700;9.316;2023-05-07T01:35:40;4.2;;;3.8;;
17949;SDS011;9100;48.700;9.316;2023-05-07T01:36:39;4.2;;;3.8;;
17949;SDS011;9100;48.700;9.316;2023-05-07T01:37:39;4.2;;;3.8;;
17949;SDS011;9100;48.700;9.316;2023-05-07T01:38:39;4.2;;;3.8;;
17949;SDS011;9100;48.700;9.316;2023-05-07T01:39:39;4.2;;;3.8;;
17949;SDS011;9100;48.700;9.316;2023-05-07T01:39:47;4.5;;;4.1;;
17949;SDS011;9100;48.700;9.316;2023-05-07T01:40:39;4.5;;;4.1;;
17949;SDS011;9100;48.700;9.316;2023-05-07T01:41:39;4.5;;;4.1;;
17949;SDS011;9100;48.700;9.316;2023-05-07T01:42:39;4.5;;;4.1;;
17949;SDS011;9100;48.700;9.316;2023-05-07T01:43:39;4.5;;;4.1;;
17949;SDS011;9100;48.700;9.316;2023-05-07T01:44:39;4.5;;;4.1;;
17949;SDS011;9100;48.700;9.316;2023-05-07T01:44:48;4.1;;;3.5;;
17949;SDS011;9100;48.700;9.316;2023-05-07T01:45:39;4.1;;;3.5;;
17949;SDS011;9100;48.700;9.316;2023-05-07T01:46:39;4.1;;;3.5;;
17949;SDS011;9100;48.700;9.316;2023-05-07T01:47:39;4.1;;;3.5;;
17949;SDS011;9100;48.700;9.316;2023-05-07T01:48:39;4.1;;;3.5;;
17949;SDS011;9100;48.700;9.316;2023-05-07T01:49:39;4.1;;;3.5;;
17949;SDS011;9100;48.700;9.316;2023-05-07T01:49:48;4.6;;;4.2;;
17949;SDS011;9100;48.700;9.316;2023-05-07T01:50:39;4.6;;;4.2;;
17949;SDS011;9100;48.700;9.316;2023-05-07T01:51:39;4.6;;;4.2;;
17949;SDS011;9100;48.700;9.316;2023-05-07T01:52:39;4.6;;;4.2;;
17949;SDS011;9100;48.700;9.316;2023-05-07T01:53:39;4.6;;;4.2;;
17949;SDS011;9100;48.700;9.316;2023-05-07T01:54:39;4.6;;;4.2;;
17949;SDS011;9100;48.700;9.316;2023-05-07T01:54:48;5.3;;;3.9;;
17949;SDS011;9100;48.700;9.316;2023-05-07T01:55:39;5.3;;;3.9;;
17949;SDS011;9100;48.700;9.316;2023-05-07T01:56:39;5.3;;;3.9;;
17949;SDS011;9100;48.700;9.316;2023-05-07T01:57:39;5.3;;;3.9;;
17949;SDS011;9100;48.700;9.316;2023-05-07T01:58:39;5.3;;;3.9;;
17949;SDS011;9100;48.700;9.316;2023-05-07T01:59:39;5.3;;;3.9;;
17949;SDS011;9100;48.700;9.316;2023-05-07T01:59:47;3.9;;;3.5;;
17949;SDS011;9100;48.700;9.316;2023-05-07T02:00:39;3.9;;;3.5;;
17949;SDS011;9100;48.700;9.316;2023-05-07T02:01:39;3.9;;;3.5;;
17949;SDS011;9100;48.700;9.316;2023-05-07T02:02:39;3.9;;;3.5;;
17949;SDS011;9100;48.700;9.316;2023-05-07T02:03:39;3.9;;;3.5;;
17949;SDS011;9100;48.700;9.316;2023-05-07T02:04:39;3.9;;;3.5;;
17949;SDS011;9100;48.700;9.316;2023-05-07T02:04:48;5.3;;;4.5;;
17949;SDS011;9100;48.700;9.316;2023-05-07T02:05:39;5.3;;;4.5;;
17949;SDS011;9100;48.700;9.316;2023-05-07T02:06:39;5.3;;;4.5;;
17949;SDS011;9100;48.700;9.316;2023-05-07T02:07:39;5.3;;;4.5;;
17949;SDS011;9100;48.700;9.316;2023-05-07T02:08:39;5.3;;;4.5;;
17949;SDS011;9100;48.700;9.316;2023-05-07T02:09:39;5.3;;;4.5;;
17949;SDS011;9100;48.700;9.316;2023-05-07T02:09:48;4.4;;;4.1;;
17949;SDS011;9100;48.700;9.316;2023-05-07T02:10:39;4.4;;;4.1;;
17949;SDS011;9100;48.700;9.316;2023-05-07T02:11:39;4.4;;;4.1;;
17949;SDS011;9100;48.700;9.316;2023-05-07T02:12:39;4.4;;;4.1;;
17949;SDS011;9100;48.700;9.316;2023-05-07T02:13:39;4.4;;;4.1;;
17949;SDS011;9100;48.700;9.316;2023-05-07T02:14:39;4.4;;;4.1;;
17949;SDS011;9100;48.700;9.316;2023-05-07T02:14:47;4.3;;;4;;
17949;SDS011;9100;48.700;9.316;2023-05-07T02:15:39;4.3;;;4;;
17949;SDS011;9100;48.700;9.316;2023-05-07T02:16:39;4.3;;;4;;
17949;SDS011;9100;48.700;9.316;2023-05-07T02:17:39;4.3;;;4;;
17949;SDS011;9100;48.700;9.316;2023-05-07T02:18:39;4.3;;;4;;
17949;SDS011;9100;48.700;9.316;2023-05-07T02:19:39;4.3;;;4;;
17949;SDS011;9100;48.700;9.316;2023-05-07T02:19:48;5.1;;;4.7;;
17949;SDS011;9100;48.700;9.316;2023-05-07T02:20:39;5.1;;;4.7;;
17949;SDS011;9100;48.700;9.316;2023-05-07T02:21:39;5.1;;;4.7;;
17949;SDS011;9100;48.700;9.316;2023-05-07T02:22:39;5.1;;;4.7;;
17949;SDS011;9100;48.700;9.316;2023-05-07T02:23:39;5.1;;;4.7;;
17949;SDS011;9100;48.700;9.316;2023-05-07T02:24:39;5.1;;;4.7;;
17949;SDS011;9100;48.700;9.316;2023-05-07T02:24:48;5;;;4.5;;
17949;SDS011;9100;48.700;9.316;2023-05-07T02:25:39;5;;;4.5;;
17949;SDS011;9100;48.700;9.316;2023-05-07T02:26:39;5;;;4.5;;
17949;SDS011;9100;48.700;9.316;2023-05-07T02:27:39;5;;;4.5;;
17949;SDS011;9100;48.700;9.316;2023-05-07T02:28:39;5;;;4.5;;
17949;SDS011;9100;48.700;9.316;2023-05-07T02:29:39;5;;;4.5;;
17949;SDS011;9100;48.700;9.316;2023-05-07T02:29:48;5.4;;;4.2;;
17949;SDS011;9100;48.700;9.316;2023-05-07T02:30:39;5.4;;;4.2;;
17949;SDS011;9100;48.700;9.316;2023-05-07T02:31:39;5.4;;;4.2;;
17949;SDS011;9100;48.700;9.316;2023-05-07T02:32:39;5.4;;;4.2;;
17949;SDS011;9100;48.700;9.316;2023-05-07T02:33:39;5.4;;;4.2;;
17949;SDS011;9100;48.700;9.316;2023-05-07T02:34:39;5.4;;;4.2;;
17949;SDS011;9100;48.700;9.316;2023-05-07T02:34:49;4.4;;;4.1;;
17949;SDS011;9100;48.700;9.316;2023-05-07T02:35:39;4.4;;;4.1;;
17949;SDS011;9100;48.700;9.316;2023-05-07T02:36:39;4.4;;;4.1;;
17949;SDS011;9100;48.700;9.316;2023-05-07T02:37:39;4.4;;;4.1;;
17949;SDS011;9100;48.700;9.316;2023-05-07T02:38:39;4.4;;;4.1;;
17949;SDS011;9100;48.700;9.316;2023-05-07T02:39:39;4.4;;;4.1;;
17949;SDS011;9100;48.700;9.316;2023-05-07T02:39:47;5.6;;;5;;
17949;SDS011;9100;48.700;9.316;2023-05-07T02:40:39;5.6;;;5;;
17949;SDS011;9100;48.700;9.316;2023-05-07T02:41:39;5.6;;;5;;
17949;SDS011;9100;48.700;9.316;2023-05-07T02:42:39;5.6;;;5;;
17949;SDS011;9100;48.700;9.316;2023-05-07T02:43:39;5.6;;;5;;
17949;SDS011;9100;48.700;9.316;2023-05-07T02:44:39;5.6;;;5;;
17949;SDS011;9100;48.700;9.316;2023-05-07T02:44:48;4.4;;;4;;
17949;SDS011;9100;48.700;9.316;2023-05-07T02:45:39;4.4;;;4;;
17949;SDS011;9100;48.700;9.316;2023-05-07T02:46:39;4.4;;;4;;
17949;SDS011;9100;48.700;9.316;2023-05-07T02:47:39;4.4;;;4;;
17949;SDS011;9100;48.700;9.316;2023-05-07T02:48:39;4.4;;;4;;
17949;SDS011;9100;48.700;9.316;2023-05-07T02:49:39;4.4;;;4;;
17949;SDS011;9100;48.700;9.316;2023-05-07T02:49:48;4.3;;;3.9;;
17949;SDS011;9100;48.700;9.316;2023-05-07T02:50:39;4.3;;;3.9;;
17949;SDS011;9100;48.700;9.316;2023-05-07T02:51:39;4.3;;;3.9;;
17949;SDS011;9100;48.700;9.316;2023-05-07T02:52:39;4.3;;;3.9;;
17949;SDS011;9100;48.700;9.316;2023-05-07T02:53:39;4.3;;;3.9;;
17949;SDS011;9100;48.700;9.316;2023-05-07T02:54:39;4.3;;;3.9;;
17949;SDS011;9100;48.700;9.316;2023-05-07T02:54:48;4.2;;;3.9;;
17949;SDS011;9100;48.700;9.316;2023-05-07T02:55:39;4.2;;;3.9;;
17949;SDS011;9100;48.700;9.316;2023-05-07T02:56:39;4.2;;;3.9;;
17949;SDS011;9100;48.700;9.316;2023-05-07T02:57:39;4.2;;;3.9;;
17949;SDS011;9100;48.700;9.316;2023-05-07T02:58:39;4.2;;;3.9;;
17949;SDS011;9100;48.700;9.316;2023-05-07T02:59:39;4.2;;;3.9;;
17949;SDS011;9100;48.700;9.316;2023-05-07T02:59:48;4.7;;;3.9;;
17949;SDS011;9100;48.700;9.316;2023-05-07T03:00:39;4.7;;;3.9;;
17949;SDS011;9100;48.700;9.316;2023-05-07T03:01:39;4.7;;;3.9;;
17949;SDS011;9100;48.700;9.316;2023-05-07T03:02:39;4.7;;;3.9;;
17949;SDS011;9100;48.700;9.316;2023-05-07T03:03:39;4.7;;;3.9;;
17949;SDS011;9100;48.700;9.316;2023-05-07T03:04:39;4.7;;;3.9;;
17949;SDS011;9100;48.700;9.316;2023-05-07T03:04:48;5.8;;;3.9;;
17949;SDS011;9100;48.700;9.316;2023-05-07T03:05:39;5.8;;;3.9;;
17949;SDS011;9100;48.700;9.316;2023-05-07T03:06:39;5.8;;;3.9;;
17949;SDS011;9100;48.700;9.316;2023-05-07T03:07:39;5.8;;;3.9;;
17949;SDS011;9100;48.700;9.316;2023-05-07T03:08:39;5.8;;;3.9;;
17949;SDS011;9100;48.700;9.316;2023-05-07T03:09:39;5.8;;;3.9;;
17949;SDS011;9100;48.700;9.316;2023-05-07T03:09:48;5.2;;;4;;
17949;SDS011;9100;48.700;9.316;2023-05-07T03:10:39;5.2;;;4;;
17949;SDS011;9100;48.700;9.316;2023-05-07T03:11:39;5.2;;;4;;
17949;SDS011;9100;48.700;9.316;2023-05-07T03:12:39;5.2;;;4;;
17949;SDS011;9100;48.700;9.316;2023-05-07T03:13:39;5.2;;;4;;
17949;SDS011;9100;48.700;9.316;2023-05-07T03:14:39;5.2;;;4;;
17949;SDS011;9100;48.700;9.316;2023-05-07T03:14:48;7.8;;;4.2;;
17949;SDS011;9100;48.700;9.316;2023-05-07T03:15:39;7.8;;;4.2;;
17949;SDS011;9100;48.700;9.316;2023-05-07T03:16:39;7.8;;;4.2;;
17949;SDS011;9100;48.700;9.316;2023-05-07T03:17:39;7.8;;;4.2;;
17949;SDS011;9100;48.700;9.316;2023-05-07T03:18:39;7.8;;;4.2;;
17949;SDS011;9100;48.700;9.316;2023-05-07T03:19:39;7.8;;;4.2;;
17949;SDS011;9100;48.700;9.316;2023-05-07T03:19:48;4.6;;;4.1;;
17949;SDS011;9100;48.700;9.316;2023-05-07T03:20:39;4.6;;;4.1;;
17949;SDS011;9100;48.700;9.316;2023-05-07T03:21:39;4.6;;;4.1;;
17949;SDS011;9100;48.700;9.316;2023-05-07T03:22:39;4.6;;;4.1;;
17949;SDS011;9100;48.700;9.316;2023-05-07T03:23:39;4.6;;;4.1;;
17949;SDS011;9100;48.700;9.316;2023-05-07T03:24:39;4.6;;;4.1;;
17949;SDS011;9100;48.700;9.316;2023-05-07T03:24:48;4.2;;;3.9;;
17949;SDS011;9100;48.700;9.316;2023-05-07T03:25:39;4.2;;;3.9;;
17949;SDS011;9100;48.700;9.316;2023-05-07T03:26:39;4.2;;;3.9;;
17949;SDS011;9100;48.700;9.316;2023-05-07T03:27:39;4.2;;;3.9;;
17949;SDS011;9100;48.700;9.316;2023-05-07T03:28:39;4.2;;;3.9;;
17949;SDS011;9100;48.700;9.316;2023-05-07T03:29:39;4.2;;;3.9;;
17949;SDS011;9100;48.700;9.316;2023-05-07T03:29:48;3.9;;;3.6;;
17949;SDS011;9100;48.700;9.316;2023-05-07T03:30:39;3.9;;;3.6;;
17949;SDS011;9100;48.700;9.316;2023-05-07T03:31:39;3.9;;;3.6;;
17949;SDS011;9100;48.700;9.316;2023-05-07T03:32:39;3.9;;;3.6;;
17949;SDS011;9100;48.700;9.316;2023-05-07T03:33:49;3.9;;;3.6;;
17949;SDS011;9100;48.700;9.316;2023-05-07T03:34:39;3.9;;;3.6;;
17949;SDS011;9100;48.700;9.316;2023-05-07T03:34:48;3.7;;;3.5;;
17949;SDS011;9100;48.700;9.316;2023-05-07T03:35:39;3.7;;;3.5;;
17949;SDS011;9100;48.700;9.316;2023-05-07T03:36:39;3.7;;;3.5;;
17949;SDS011;9100;48.700;9.316;2023-05-07T03:37:39;3.7;;;3.5;;
17949;SDS011;9100;48.700;9.316;2023-05-07T03:38:39;3.7;;;3.5;;
17949;SDS011;9100;48.700;9.316;2023-05-07T03:39:39;3.7;;;3.5;;
17949;SDS011;9100;48.700;9.316;2023-05-07T03:39:48;3.7;;;3.4;;
17949;SDS011;9100;48.700;9.316;2023-05-07T03:40:39;3.7;;;3.4;;
17949;SDS011;9100;48.700;9.316;2023-05-07T03:41:39;3.7;;;3.4;;
17949;SDS011;9100;48.700;9.316;2023-05-07T03:42:39;3.7;;;3.4;;
17949;SDS011;9100;48.700;9.316;2023-05-07T03:43:39;3.7;;;3.4;;
17949;SDS011;9100;48.700;9.316;2023-05-07T03:44:39;3.7;;;3.4;;
17949;SDS011;9100;48.700;9.316;2023-05-07T03:44:48;3.4;;;3.1;;
17949;SDS011;9100;48.700;9.316;2023-05-07T03:45:40;3.4;;;3.1;;
17949;SDS011;9100;48.700;9.316;2023-05-07T03:46:39;3.4;;;3.1;;
17949;SDS011;9100;48.700;9.316;2023-05-07T03:47:39;3.4;;;3.1;;
17949;SDS011;9100;48.700;9.316;2023-05-07T03:48:39;3.4;;;3.1;;
17949;SDS011;9100;48.700;9.316;2023-05-07T03:49:39;3.4;;;3.1;;
17949;SDS011;9100;48.700;9.316;2023-05-07T03:49:48;3.6;;;3.3;;
17949;SDS011;9100;48.700;9.316;2023-05-07T03:50:39;3.6;;;3.3;;
17949;SDS011;9100;48.700;9.316;2023-05-07T03:51:39;3.6;;;3.3;;
17949;SDS011;9100;48.700;9.316;2023-05-07T03:52:39;3.6;;;3.3;;
17949;SDS011;9100;48.700;9.316;2023-05-07T03:53:39;3.6;;;3.3;;
17949;SDS011;9100;48.700;9.316;2023-05-07T03:54:39;3.6;;;3.3;;
17949;SDS011;9100;48.700;9.316;2023-05-07T03:54:48;3.7;;;3.4;;
17949;SDS011;9100;48.700;9.316;2023-05-07T03:55:39;3.7;;;3.4;;
17949;SDS011;9100;48.700;9.316;2023-05-07T03:56:39;3.7;;;3.4;;
17949;SDS011;9100;48.700;9.316;2023-05-07T03:57:39;3.7;;;3.4;;
17949;SDS011;9100;48.700;9.316;2023-05-07T03:58:39;3.7;;;3.4;;
17949;SDS011;9100;48.700;9.316;2023-05-07T03:59:39;3.7;;;3.4;;
17949;SDS011;9100;48.700;9.316;2023-05-07T03:59:48;4.2;;;3.6;;
17949;SDS011;9100;48.700;9.316;2023-05-07T04:00:39;4.2;;;3.6;;
17949;SDS011;9100;48.700;9.316;2023-05-07T04:01:39;4.2;;;3.6;;
17949;SDS011;9100;48.700;9.316;2023-05-07T04:02:39;4.2;;;3.6;;
17949;SDS011;9100;48.700;9.316;2023-05-07T04:03:39;4.2;;;3.6;;
17949;SDS011;9100;48.700;9.316;2023-05-07T04:04:39;4.2;;;3.6;;
17949;SDS011;9100;48.700;9.316;2023-05-07T04:04:48;4.4;;;4;;
17949;SDS011;9100;48.700;9.316;2023-05-07T04:05:39;4.4;;;4;;
17949;SDS011;9100;48.700;9.316;2023-05-07T04:06:39;4.4;;;4;;
17949;SDS011;9100;48.700;9.316;2023-05-07T04:07:39;4.4;;;4;;
17949;SDS011;9100;48.700;9.316;2023-05-07T04:08:39;4.4;;;4;;
17949;SDS011;9100;48.700;9.316;2023-05-07T04:09:39;4.4;;;4;;
17949;SDS011;9100;48.700;9.316;2023-05-07T04:09:48;6.7;;;3.8;;
17949;SDS011;9100;48.700;9.316;2023-05-07T04:10:39;6.7;;;3.8;;
17949;SDS011;9100;48.700;9.316;2023-05-07T04:11:39;6.7;;;3.8;;
17949;SDS011;9100;48.700;9.316;2023-05-07T04:12:39;6.7;;;3.8;;
17949;SDS011;9100;48.700;9.316;2023-05-07T04:13:39;6.7;;;3.8;;
17949;SDS011;9100;48.700;9.316;2023-05-07T04:14:39;6.7;;;3.8;;
17949;SDS011;9100;48.700;9.316;2023-05-07T04:14:48;4.5;;;4;;
17949;SDS011;9100;48.700;9.316;2023-05-07T04:15:39;4.5;;;4;;
17949;SDS011;9100;48.700;9.316;2023-05-07T04:16:39;4.5;;;4;;
17949;SDS011;9100;48.700;9.316;2023-05-07T04:17:39;4.5;;;4;;
17949;SDS011;9100;48.700;9.316;2023-05-07T04:18:39;4.5;;;4;;
17949;SDS011;9100;48.700;9.316;2023-05-07T04:19:39;4.5;;;4;;
17949;SDS011;9100;48.700;9.316;2023-05-07T04:19:47;3.5;;;3.3;;
17949;SDS011;9100;48.700;9.316;2023-05-07T04:20:39;3.5;;;3.3;;
17949;SDS011;9100;48.700;9.316;2023-05-07T04:21:39;3.5;;;3.3;;
17949;SDS011;9100;48.700;9.316;2023-05-07T04:22:39;3.5;;;3.3;;
17949;SDS011;9100;48.700;9.316;2023-05-07T04:23:39;3.5;;;3.3;;
17949;SDS011;9100;48.700;9.316;2023-05-07T04:24:39;3.5;;;3.3;;
17949;SDS011;9100;48.700;9.316;2023-05-07T04:24:47;6.4;;;3.9;;
17949;SDS011;9100;48.700;9.316;2023-05-07T04:25:39;6.4;;;3.9;;
17949;SDS011;9100;48.700;9.316;2023-05-07T04:26:39;6.4;;;3.9;;
17949;SDS011;9100;48.700;9.316;2023-05-07T04:27:39;6.4;;;3.9;;
17949;SDS011;9100;48.700;9.316;2023-05-07T04:28:39;6.4;;;3.9;;
17949;SDS011;9100;48.700;9.316;2023-05-07T04:29:39;6.4;;;3.9;;
17949;SDS011;9100;48.700;9.316;2023-05-07T04:29:48;4;;;3.4;;
17949;SDS011;9100;48.700;9.316;2023-05-07T04:30:39;4;;;3.4;;
17949;SDS011;9100;48.700;9.316;2023-05-07T04:31:39;4;;;3.4;;
17949;SDS011;9100;48.700;9.316;2023-05-07T04:32:39;4;;;3.4;;
17949;SDS011;9100;48.700;9.316;2023-05-07T04:33:39;4;;;3.4;;
17949;SDS011;9100;48.700;9.316;2023-05-07T04:34:39;4;;;3.4;;
17949;SDS011;9100;48.700;9.316;2023-05-07T04:34:48;4.1;;;3.8;;
17949;SDS011;9100;48.700;9.316;2023-05-07T04:35:39;4.1;;;3.8;;
17949;SDS011;9100;48.700;9.316;2023-05-07T04:36:39;4.1;;;3.8;;
17949;SDS011;9100;48.700;9.316;2023-05-07T04:37:39;4.1;;;3.8;;
17949;SDS011;9100;48.700;9.316;2023-05-07T04:38:39;4.1;;;3.8;;
17949;SDS011;9100;48.700;9.316;2023-05-07T04:39:39;4.1;;;3.8;;
17949;SDS011;9100;48.700;9.316;2023-05-07T04:39:48;8;;;4;;
17949;SDS011;9100;48.700;9.316;2023-05-07T04:40:39;8;;;4;;
17949;SDS011;9100;48.700;9.316;2023-05-07T04:41:39;8;;;4;;
17949;SDS011;9100;48.700;9.316;2023-05-07T04:42:39;8;;;4;;
17949;SDS011;9100;48.700;9.316;2023-05-07T04:43:39;8;;;4;;
17949;SDS011;9100;48.700;9.316;2023-05-07T04:44:39;8;;;4;;
17949;SDS011;9100;48.700;9.316;2023-05-07T04:44:48;4.4;;;4;;
17949;SDS011;9100;48.700;9.316;2023-05-07T04:45:39;4.4;;;4;;
17949;SDS011;9100;48.700;9.316;2023-05-07T04:46:39;4.4;;;4;;
17949;SDS011;9100;48.700;9.316;2023-05-07T04:47:39;4.4;;;4;;
17949;SDS011;9100;48.700;9.316;2023-05-07T04:48:39;4.4;;;4;;
17949;SDS011;9100;48.700;9.316;2023-05-07T04:49:39;4.4;;;4;;
17949;SDS011;9100;48.700;9.316;2023-05-07T04:49:48;4.2;;;3.9;;
17949;SDS011;9100;48.700;9.316;2023-05-07T04:50:39;4.2;;;3.9;;
17949;SDS011;9100;48.700;9.316;2023-05-07T04:51:39;4.2;;;3.9;;
17949;SDS011;9100;48.700;9.316;2023-05-07T04:52:39;4.2;;;3.9;;
17949;SDS011;9100;48.700;9.316;2023-05-07T04:53:39;4.2;;;3.9;;
17949;SDS011;9100;48.700;9.316;2023-05-07T04:54:39;4.2;;;3.9;;
17949;SDS011;9100;48.700;9.316;2023-05-07T04:54:48;4.2;;;3.7;;
17949;SDS011;9100;48.700;9.316;2023-05-07T04:55:39;4.2;;;3.7;;
17949;SDS011;9100;48.700;9.316;2023-05-07T04:56:39;4.2;;;3.7;;
17949;SDS011;9100;48.700;9.316;2023-05-07T04:57:39;4.2;;;3.7;;
17949;SDS011;9100;48.700;9.316;2023-05-07T04:58:39;4.2;;;3.7;;
17949;SDS011;9100;48.700;9.316;2023-05-07T04:59:39;4.2;;;3.7;;
17949;SDS011;9100;48.700;9.316;2023-05-07T04:59:48;4.1;;;3.7;;
17949;SDS011;9100;48.700;9.316;2023-05-07T05:00:39;4.1;;;3.7;;
17949;SDS011;9100;48.700;9.316;2023-05-07T05:01:39;4.1;;;3.7;;
17949;SDS011;9100;48.700;9.316;2023-05-07T05:02:39;4.1;;;3.7;;
17949;SDS011;9100;48.700;9.316;2023-05-07T05:03:39;4.1;;;3.7;;
17949;SDS011;9100;48.700;9.316;2023-05-07T05:04:39;4.1;;;3.7;;
17949;SDS011;9100;48.700;9.316;2023-05-07T05:04:48;4.4;;;4.1;;
17949;SDS011;9100;48.700;9.316;2023-05-07T05:05:39;4.4;;;4.1;;
17949;SDS011;9100;48.700;9.316;2023-05-07T05:06:39;4.4;;;4.1;;
17949;SDS011;9100;48.700;9.316;2023-05-07T05:07:39;4.4;;;4.1;;
17949;SDS011;9100;48.700;9.316;2023-05-07T05:08:39;4.4;;;4.1;;
17949;SDS011;9100;48.700;9.316;2023-05-07T05:09:39;4.4;;;4.1;;
17949;SDS011;9100;48.700;9.316;2023-05-07T05:09:48;7.7;;;4.3;;
17949;SDS011;9100;48.700;9.316;2023-05-07T05:10:39;7.7;;;4.3;;
17949;SDS011;9100;48.700;9.316;2023-05-07T05:11:39;7.7;;;4.3;;
17949;SDS011;9100;48.700;9.316;2023-05-07T05:12:39;7.7;;;4.3;;
17949;SDS011;9100;48.700;9.316;2023-05-07T05:13:39;7.7;;;4.3;;
17949;SDS011;9100;48.700;9.316;2023-05-07T05:14:39;7.7;;;4.3;;
17949;SDS011;9100;48.700;9.316;2023-05-07T05:14:48;3.4;;;3.2;;
17949;SDS011;9100;48.700;9.316;2023-05-07T05:15:39;3.4;;;3.2;;
17949;SDS011;9100;48.700;9.316;2023-05-07T05:16:39;3.4;;;3.2;;
17949;SDS011;9100;48.700;9.316;2023-05-07T05:17:39;3.4;;;3.2;;
17949;SDS011;9100;48.700;9.316;2023-05-07T05:18:39;3.4;;;3.2;;
17949;SDS011;9100;48.700;9.316;2023-05-07T05:19:39;3.4;;;3.2;;